sensor_id;sensor_type;location;lat;lon;timestamp;temperature;humidity
7212;DHT22;3647;48.792;9.802;2023-06-04T00:02:18;15.50;99.90
7212;DHT22;3647;48.792;9.802;2023-06-04T00:04:45;15.50;99.90
7212;DHT22;3647;48.792;9.802;2023-06-04T00:07:12;15.40;99.90
7212;DHT22;3647;48.792;9.802;2023-06-04T00:09:38;15.40;99.90
7212;DHT22;3647;48.792;9.802;2023-06-04T00:12:06;15.20;99.90
7212;DHT22;3647;48.792;9.802;2023-06-04T00:14:34;15.30;99.90
7212;DHT22;3647;48.792;9.802;2023-06-04T00:17:01;15.40;99.90
7212;DHT22;3647;48.792;9.802;2023-06-04T00:19:28;15.40;99.90
7212;DHT22;3647;48.792;9.802;2023-06-04T00:21:54;15.40;99.90
7212;DHT22;3647;48.792;9.802;2023-06-04T00:24:21;15.40;99.90
7212;DHT22;3647;48.792;9.802;2023-06-04T00:26:48;15.30;99.90
7212;DHT22;3647;48.792;9.802;2023-06-04T00:29:15;15.20;99.90
7212;DHT22;3647;48.792;9.802;2023-06-04T00:31:43;15.20;99.90
7212;DHT22;3647;48.792;9.802;2023-06-04T00:34:10;15.10;99.90
7212;DHT22;3647;48.792;9.802;2023-06-04T00:36:37;15.80;99.90
7212;DHT22;3647;48.792;9.802;2023-06-04T00:39:03;16.40;99.90
7212;DHT22;3647;48.792;9.802;2023-06-04T00:41:30;15.10;99.90
7212;DHT22;3647;48.792;9.802;2023-06-04T00:43:57;15.10;99.90
7212;DHT22;3647;48.792;9.802;2023-06-04T00:46:28;15.10;99.90
7212;DHT22;3647;48.792;9.802;2023-06-04T00:48:58;15.00;99.90
7212;DHT22;3647;48.792;9.802;2023-06-04T00:51:25;14.80;99.90
7212;DHT22;3647;48.792;9.802;2023-06-04T00:53:52;14.80;99.90
7212;DHT22;3647;48.792;9.802;2023-06-04T00:56:19;14.90;99.90
7212;DHT22;3647;48.792;9.802;2023-06-04T00:58:46;15.00;99.90
7212;DHT22;3647;48.792;9.802;2023-06-04T01:01:19;15.00;99.90
7212;DHT22;3647;48.792;9.802;2023-06-04T01:03:51;15.00;99.90
7212;DHT22;3647;48.792;9.802;2023-06-04T01:06:28;14.90;99.90
7212;DHT22;3647;48.792;9.802;2023-06-04T01:08:58;14.90;99.90
7212;DHT22;3647;48.792;9.802;2023-06-04T01:11:32;14.90;99.90
7212;DHT22;3647;48.792;9.802;2023-06-04T01:14:00;14.80;99.90
7212;DHT22;3647;48.792;9.802;2023-06-04T01:16:27;14.60;99.90
7212;DHT22;3647;48.792;9.802;2023-06-04T01:18:58;14.60;99.90
7212;DHT22;3647;48.792;9.802;2023-06-04T01:21:30;14.70;99.90
7212;DHT22;3647;48.792;9.802;2023-06-04T01:24:01;14.60;99.90
7212;DHT22;3647;48.792;9.802;2023-06-04T01:26:32;14.70;99.90
7212;DHT22;3647;48.792;9.802;2023-06-04T01:28:59;14.70;99.90
7212;DHT22;3647;48.792;9.802;2023-06-04T01:31:28;14.60;99.90
7212;DHT22;3647;48.792;9.802;2023-06-04T01:33:58;14.60;99.90
7212;DHT22;3647;48.792;9.802;2023-06-04T01:36:25;14.60;99.90
7212;DHT22;3647;48.792;9.802;2023-06-04T01:38:53;14.50;99.90
7212;DHT22;3647;48.792;9.802;2023-06-04T01:41:20;16.50;99.90
7212;DHT22;3647;48.792;9.802;2023-06-04T01:43:47;14.30;99.90
7212;DHT22;3647;48.792;9.802;2023-06-04T01:46:14;14.20;99.90
7212;DHT22;3647;48.792;9.802;2023-06-04T01:48:40;14.20;99.90
7212;DHT22;3647;48.792;9.802;2023-06-04T01:51:07;14.20;99.90
7212;DHT22;3647;48.792;9.802;2023-06-04T01:53:34;14.10;99.90
7212;DHT22;3647;48.792;9.802;2023-06-04T01:56:02;14.10;99.90
7212;DHT22;3647;48.792;9.802;2023-06-04T01:58:29;14.00;99.90
7212;DHT22;3647;48.792;9.802;2023-06-04T02:00:57;14.00;99.90
7212;DHT22;3647;48.792;9.802;2023-06-04T02:03:25;13.90;99.90
7212;DHT22;3647;48.792;9.802;2023-06-04T02:05:52;13.90;99.90
7212;DHT22;3647;48.792;9.802;2023-06-04T02:08:19;13.80;99.90
7212;DHT22;3647;48.792;9.802;2023-06-04T02:10:47;13.70;99.90
7212;DHT22;3647;48.792;9.802;2023-06-04T02:13:15;13.70;99.90
7212;DHT22;3647;48.792;9.802;2023-06-04T02:15:42;13.60;99.90
7212;DHT22;3647;48.792;9.802;2023-06-04T02:18:13;13.70;99.90
7212;DHT22;3647;48.792;9.802;2023-06-04T02:20:42;13.60;99.90
7212;DHT22;3647;48.792;9.802;2023-06-04T02:23:09;13.50;99.90
7212;DHT22;3647;48.792;9.802;2023-06-04T02:25:36;13.50;99.90
7212;DHT22;3647;48.792;9.802;2023-06-04T02:28:02;13.40;99.90
7212;DHT22;3647;48.792;9.802;2023-06-04T02:30:31;13.30;99.90
7212;DHT22;3647;48.792;9.802;2023-06-04T02:32:57;13.30;99.90
7212;DHT22;3647;48.792;9.802;2023-06-04T02:35:26;13.30;99.90
7212;DHT22;3647;48.792;9.802;2023-06-04T02:37:53;13.30;99.90
7212;DHT22;3647;48.792;9.802;2023-06-04T02:40:21;13.30;99.90
7212;DHT22;3647;48.792;9.802;2023-06-04T02:42:48;13.20;99.90
7212;DHT22;3647;48.792;9.802;2023-06-04T02:45:15;13.20;99.90
7212;DHT22;3647;48.792;9.802;2023-06-04T02:47:43;13.10;99.90
7212;DHT22;3647;48.792;9.802;2023-06-04T02:50:11;13.10;99.90
7212;DHT22;3647;48.792;9.802;2023-06-04T02:52:38;13.00;99.90
7212;DHT22;3647;48.792;9.802;2023-06-04T02:55:06;12.80;99.90
7212;DHT22;3647;48.792;9.802;2023-06-04T02:57:34;12.90;99.90
7212;DHT22;3647;48.792;9.802;2023-06-04T03:00:01;12.90;99.90
7212;DHT22;3647;48.792;9.802;2023-06-04T03:02:36;12.90;99.90
7212;DHT22;3647;48.792;9.802;2023-06-04T03:05:04;12.80;99.90
7212;DHT22;3647;48.792;9.802;2023-06-04T03:07:31;12.70;99.90
7212;DHT22;3647;48.792;9.802;2023-06-04T03:09:58;12.80;99.90
7212;DHT22;3647;48.792;9.802;2023-06-04T03:12:25;12.80;99.90
7212;DHT22;3647;48.792;9.802;2023-06-04T03:14:52;12.70;99.90
7212;DHT22;3647;48.792;9.802;2023-06-04T03:17:18;12.70;99.90
7212;DHT22;3647;48.792;9.802;2023-06-04T03:19:45;12.70;99.90
7212;DHT22;3647;48.792;9.802;2023-06-04T03:22:14;12.70;99.90
7212;DHT22;3647;48.792;9.802;2023-06-04T03:24:41;12.70;99.90
7212;DHT22;3647;48.792;9.802;2023-06-04T03:27:09;12.60;99.90
7212;DHT22;3647;48.792;9.802;2023-06-04T03:29:36;12.60;99.90
7212;DHT22;3647;48.792;9.802;2023-06-04T03:32:04;12.50;99.90
7212;DHT22;3647;48.792;9.802;2023-06-04T03:34:31;12.50;99.90
7212;DHT22;3647;48.792;9.802;2023-06-04T03:36:58;12.50;99.90
7212;DHT22;3647;48.792;9.802;2023-06-04T03:39:27;12.50;99.90
7212;DHT22;3647;48.792;9.802;2023-06-04T03:41:54;12.40;99.90
7212;DHT22;3647;48.792;9.802;2023-06-04T03:44:22;12.50;99.90
7212;DHT22;3647;48.792;9.802;2023-06-04T03:46:48;12.50;99.90
7212;DHT22;3647;48.792;9.802;2023-06-04T03:49:15;12.60;99.90
7212;DHT22;3647;48.792;9.802;2023-06-04T03:51:43;12.60;99.90
7212;DHT22;3647;48.792;9.802;2023-06-04T03:54:10;12.70;99.90
7212;DHT22;3647;48.792;9.802;2023-06-04T03:56:43;12.90;99.90
7212;DHT22;3647;48.792;9.802;2023-06-04T03:59:10;12.80;99.90
7212;DHT22;3647;48.792;9.802;2023-06-04T04:01:37;12.80;99.90
7212;DHT22;3647;48.792;9.802;2023-06-04T04:04:04;12.80;99.90
7212;DHT22;3647;48.792;9.802;2023-06-04T04:06:31;12.80;99.90
7212;DHT22;3647;48.792;9.802;2023-06-04T04:08:58;12.90;99.90
7212;DHT22;3647;48.792;9.802;2023-06-04T04:11:24;12.90;99.90
7212;DHT22;3647;48.792;9.802;2023-06-04T04:13:53;12.90;99.90
7212;DHT22;3647;48.792;9.802;2023-06-04T04:16:20;13.00;99.90
7212;DHT22;3647;48.792;9.802;2023-06-04T04:18:46;13.50;99.90
7212;DHT22;3647;48.792;9.802;2023-06-04T04:21:13;14.10;99.90
7212;DHT22;3647;48.792;9.802;2023-06-04T04:23:40;14.60;99.90
7212;DHT22;3647;48.792;9.802;2023-06-04T04:26:08;15.00;99.90
7212;DHT22;3647;48.792;9.802;2023-06-04T04:28:35;15.00;99.90
7212;DHT22;3647;48.792;9.802;2023-06-04T04:31:03;14.90;99.90
7212;DHT22;3647;48.792;9.802;2023-06-04T04:33:32;14.70;99.90
7212;DHT22;3647;48.792;9.802;2023-06-04T04:36:02;14.50;99.90
7212;DHT22;3647;48.792;9.802;2023-06-04T04:38:29;14.30;99.90
7212;DHT22;3647;48.792;9.802;2023-06-04T04:40:59;14.40;99.90
7212;DHT22;3647;48.792;9.802;2023-06-04T04:43:30;15.20;99.90
7212;DHT22;3647;48.792;9.802;2023-06-04T04:45:57;16.20;99.90
7212;DHT22;3647;48.792;9.802;2023-06-04T04:48:25;17.30;99.90
7212;DHT22;3647;48.792;9.802;2023-06-04T04:50:52;18.00;99.90
7212;DHT22;3647;48.792;9.802;2023-06-04T04:53:19;18.70;99.90
7212;DHT22;3647;48.792;9.802;2023-06-04T04:55:46;19.30;99.90
7212;DHT22;3647;48.792;9.802;2023-06-04T04:58:13;19.90;99.90
7212;DHT22;3647;48.792;9.802;2023-06-04T05:00:40;20.50;99.90
7212;DHT22;3647;48.792;9.802;2023-06-04T05:03:07;20.70;99.90
7212;DHT22;3647;48.792;9.802;2023-06-04T05:05:35;21.10;99.90
7212;DHT22;3647;48.792;9.802;2023-06-04T05:08:03;21.60;99.90
7212;DHT22;3647;48.792;9.802;2023-06-04T05:10:30;22.00;98.80
7212;DHT22;3647;48.792;9.802;2023-06-04T05:12:58;22.50;96.70
7212;DHT22;3647;48.792;9.802;2023-06-04T05:15:25;22.70;95.60
7212;DHT22;3647;48.792;9.802;2023-06-04T05:17:52;23.10;95.40
7212;DHT22;3647;48.792;9.802;2023-06-04T05:20:22;23.30;94.00
7212;DHT22;3647;48.792;9.802;2023-06-04T05:22:50;23.40;93.80
7212;DHT22;3647;48.792;9.802;2023-06-04T05:25:17;23.70;92.70
7212;DHT22;3647;48.792;9.802;2023-06-04T05:27:44;23.90;91.60
7212;DHT22;3647;48.792;9.802;2023-06-04T05:30:11;24.20;91.00
7212;DHT22;3647;48.792;9.802;2023-06-04T05:32:39;24.10;89.40
7212;DHT22;3647;48.792;9.802;2023-06-04T05:35:08;24.40;90.20
7212;DHT22;3647;48.792;9.802;2023-06-04T05:37:35;24.60;87.60
7212;DHT22;3647;48.792;9.802;2023-06-04T05:40:06;24.90;86.90
7212;DHT22;3647;48.792;9.802;2023-06-04T05:42:33;24.30;86.30
7212;DHT22;3647;48.792;9.802;2023-06-04T05:45:00;23.70;87.80
7212;DHT22;3647;48.792;9.802;2023-06-04T05:47:27;23.20;87.30
7212;DHT22;3647;48.792;9.802;2023-06-04T05:49:55;22.20;89.10
7212;DHT22;3647;48.792;9.802;2023-06-04T05:52:22;21.30;90.90
7212;DHT22;3647;48.792;9.802;2023-06-04T05:54:49;20.60;91.70
7212;DHT22;3647;48.792;9.802;2023-06-04T05:57:17;20.00;92.70
7212;DHT22;3647;48.792;9.802;2023-06-04T05:59:44;20.00;93.70
7212;DHT22;3647;48.792;9.802;2023-06-04T06:02:11;19.60;93.00
7212;DHT22;3647;48.792;9.802;2023-06-04T06:04:38;19.70;94.30
7212;DHT22;3647;48.792;9.802;2023-06-04T06:07:05;19.50;94.40
7212;DHT22;3647;48.792;9.802;2023-06-04T06:09:31;19.50;95.30
7212;DHT22;3647;48.792;9.802;2023-06-04T06:11:58;19.40;95.50
7212;DHT22;3647;48.792;9.802;2023-06-04T06:14:26;19.30;95.40
7212;DHT22;3647;48.792;9.802;2023-06-04T06:16:53;19.20;95.90
7212;DHT22;3647;48.792;9.802;2023-06-04T06:19:20;19.10;96.00
7212;DHT22;3647;48.792;9.802;2023-06-04T06:21:46;18.70;96.00
7212;DHT22;3647;48.792;9.802;2023-06-04T06:24:13;18.70;96.70
7212;DHT22;3647;48.792;9.802;2023-06-04T06:26:40;18.50;96.90
7212;DHT22;3647;48.792;9.802;2023-06-04T06:29:08;18.40;97.90
7212;DHT22;3647;48.792;9.802;2023-06-04T06:31:36;18.50;98.60
7212;DHT22;3647;48.792;9.802;2023-06-04T06:34:03;18.50;98.80
7212;DHT22;3647;48.792;9.802;2023-06-04T06:36:29;18.40;99.40
7212;DHT22;3647;48.792;9.802;2023-06-04T06:38:58;18.70;99.70
7212;DHT22;3647;48.792;9.802;2023-06-04T06:41:25;18.90;99.30
7212;DHT22;3647;48.792;9.802;2023-06-04T06:43:52;18.40;98.90
7212;DHT22;3647;48.792;9.802;2023-06-04T06:46:19;21.50;99.90
7212;DHT22;3647;48.792;9.802;2023-06-04T06:48:48;20.80;99.30
7212;DHT22;3647;48.792;9.802;2023-06-04T06:51:15;19.50;99.40
7212;DHT22;3647;48.792;9.802;2023-06-04T06:53:42;19.50;99.10
7212;DHT22;3647;48.792;9.802;2023-06-04T06:56:09;19.70;99.00
7212;DHT22;3647;48.792;9.802;2023-06-04T06:58:36;20.40;99.00
7212;DHT22;3647;48.792;9.802;2023-06-04T07:01:03;20.70;97.80
7212;DHT22;3647;48.792;9.802;2023-06-04T07:03:31;20.70;97.10
7212;DHT22;3647;48.792;9.802;2023-06-04T07:05:59;20.40;97.20
7212;DHT22;3647;48.792;9.802;2023-06-04T07:08:26;19.90;97.90
7212;DHT22;3647;48.792;9.802;2023-06-04T07:10:53;19.80;98.20
7212;DHT22;3647;48.792;9.802;2023-06-04T07:13:20;19.60;98.70
7212;DHT22;3647;48.792;9.802;2023-06-04T07:15:47;19.50;99.30
7212;DHT22;3647;48.792;9.802;2023-06-04T07:18:14;19.90;99.40
7212;DHT22;3647;48.792;9.802;2023-06-04T07:20:41;20.00;99.40
7212;DHT22;3647;48.792;9.802;2023-06-04T07:23:09;20.40;98.70
7212;DHT22;3647;48.792;9.802;2023-06-04T07:25:35;20.60;98.70
7212;DHT22;3647;48.792;9.802;2023-06-04T07:28:02;21.20;98.30
7212;DHT22;3647;48.792;9.802;2023-06-04T07:30:30;21.70;97.60
7212;DHT22;3647;48.792;9.802;2023-06-04T07:32:57;21.90;95.90
7212;DHT22;3647;48.792;9.802;2023-06-04T07:35:24;20.60;96.90
7212;DHT22;3647;48.792;9.802;2023-06-04T07:37:51;20.70;97.60
7212;DHT22;3647;48.792;9.802;2023-06-04T07:40:19;20.90;96.60
7212;DHT22;3647;48.792;9.802;2023-06-04T07:42:46;20.90;96.90
7212;DHT22;3647;48.792;9.802;2023-06-04T07:45:13;20.70;97.10
7212;DHT22;3647;48.792;9.802;2023-06-04T07:47:40;20.60;97.40
7212;DHT22;3647;48.792;9.802;2023-06-04T07:50:08;21.20;97.30
7212;DHT22;3647;48.792;9.802;2023-06-04T07:52:34;21.60;97.40
7212;DHT22;3647;48.792;9.802;2023-06-04T07:55:01;21.70;95.80
7212;DHT22;3647;48.792;9.802;2023-06-04T07:57:30;21.40;96.20
7212;DHT22;3647;48.792;9.802;2023-06-04T07:59:57;21.50;96.70
7212;DHT22;3647;48.792;9.802;2023-06-04T08:02:24;21.90;96.50
7212;DHT22;3647;48.792;9.802;2023-06-04T08:04:52;22.30;96.20
7212;DHT22;3647;48.792;9.802;2023-06-04T08:07:18;22.60;95.80
7212;DHT22;3647;48.792;9.802;2023-06-04T08:09:45;23.10;95.70
7212;DHT22;3647;48.792;9.802;2023-06-04T08:12:12;22.50;94.90
7212;DHT22;3647;48.792;9.802;2023-06-04T08:14:40;22.40;94.80
7212;DHT22;3647;48.792;9.802;2023-06-04T08:17:07;21.80;96.20
7212;DHT22;3647;48.792;9.802;2023-06-04T08:19:33;21.70;95.70
7212;DHT22;3647;48.792;9.802;2023-06-04T08:22:00;21.90;96.10
7212;DHT22;3647;48.792;9.802;2023-06-04T08:24:27;21.40;96.40
7212;DHT22;3647;48.792;9.802;2023-06-04T08:26:54;21.80;96.50
7212;DHT22;3647;48.792;9.802;2023-06-04T08:29:21;22.20;94.90
7212;DHT22;3647;48.792;9.802;2023-06-04T08:31:49;22.20;95.60
7212;DHT22;3647;48.792;9.802;2023-06-04T08:34:15;22.30;94.80
7212;DHT22;3647;48.792;9.802;2023-06-04T08:36:42;22.30;94.40
7212;DHT22;3647;48.792;9.802;2023-06-04T08:39:09;22.00;94.10
7212;DHT22;3647;48.792;9.802;2023-06-04T08:41:42;22.00;93.10
7212;DHT22;3647;48.792;9.802;2023-06-04T08:44:10;22.40;93.80
7212;DHT22;3647;48.792;9.802;2023-06-04T08:46:37;22.80;94.20
7212;DHT22;3647;48.792;9.802;2023-06-04T08:49:07;22.80;92.60
7212;DHT22;3647;48.792;9.802;2023-06-04T08:51:35;23.30;92.90
7212;DHT22;3647;48.792;9.802;2023-06-04T08:54:04;23.50;92.10
7212;DHT22;3647;48.792;9.802;2023-06-04T08:56:32;22.50;92.40
7212;DHT22;3647;48.792;9.802;2023-06-04T08:59:00;22.50;91.70
7212;DHT22;3647;48.792;9.802;2023-06-04T09:01:27;22.00;92.60
7212;DHT22;3647;48.792;9.802;2023-06-04T09:03:55;22.50;92.40
7212;DHT22;3647;48.792;9.802;2023-06-04T09:06:25;22.60;91.90
7212;DHT22;3647;48.792;9.802;2023-06-04T09:08:55;22.90;91.40
7212;DHT22;3647;48.792;9.802;2023-06-04T09:11:24;22.90;91.00
7212;DHT22;3647;48.792;9.802;2023-06-04T09:13:53;23.40;91.20
7212;DHT22;3647;48.792;9.802;2023-06-04T09:16:20;23.90;90.10
7212;DHT22;3647;48.792;9.802;2023-06-04T09:18:46;23.50;91.30
7212;DHT22;3647;48.792;9.802;2023-06-04T09:21:13;23.90;88.60
7212;DHT22;3647;48.792;9.802;2023-06-04T09:23:45;23.20;90.00
7212;DHT22;3647;48.792;9.802;2023-06-04T09:26:13;23.10;89.20
7212;DHT22;3647;48.792;9.802;2023-06-04T09:28:40;22.70;90.30
7212;DHT22;3647;48.792;9.802;2023-06-04T09:31:08;22.90;90.30
7212;DHT22;3647;48.792;9.802;2023-06-04T09:33:42;23.30;90.70
7212;DHT22;3647;48.792;9.802;2023-06-04T09:36:10;22.80;88.80
7212;DHT22;3647;48.792;9.802;2023-06-04T09:38:37;23.00;90.00
7212;DHT22;3647;48.792;9.802;2023-06-04T09:41:11;23.30;88.80
7212;DHT22;3647;48.792;9.802;2023-06-04T09:43:38;23.60;89.20
7212;DHT22;3647;48.792;9.802;2023-06-04T09:46:09;23.50;87.80
7212;DHT22;3647;48.792;9.802;2023-06-04T09:48:37;23.70;88.20
7212;DHT22;3647;48.792;9.802;2023-06-04T09:51:08;23.70;86.30
7212;DHT22;3647;48.792;9.802;2023-06-04T09:53:36;23.60;86.60
7212;DHT22;3647;48.792;9.802;2023-06-04T09:56:05;23.60;87.90
7212;DHT22;3647;48.792;9.802;2023-06-04T09:58:34;23.80;85.80
7212;DHT22;3647;48.792;9.802;2023-06-04T10:01:05;23.80;85.80
7212;DHT22;3647;48.792;9.802;2023-06-04T10:03:33;24.10;85.60
7212;DHT22;3647;48.792;9.802;2023-06-04T10:06:03;24.10;84.60
7212;DHT22;3647;48.792;9.802;2023-06-04T10:08:31;24.20;84.10
7212;DHT22;3647;48.792;9.802;2023-06-04T10:11:00;24.20;84.60
7212;DHT22;3647;48.792;9.802;2023-06-04T10:13:30;23.60;85.20
7212;DHT22;3647;48.792;9.802;2023-06-04T10:15:58;24.20;84.20
7212;DHT22;3647;48.792;9.802;2023-06-04T10:18:27;23.90;81.60
7212;DHT22;3647;48.792;9.802;2023-06-04T10:20:55;24.30;83.10
7212;DHT22;3647;48.792;9.802;2023-06-04T10:23:23;24.20;82.80
7212;DHT22;3647;48.792;9.802;2023-06-04T10:25:50;24.90;83.70
7212;DHT22;3647;48.792;9.802;2023-06-04T10:28:19;25.30;83.00
7212;DHT22;3647;48.792;9.802;2023-06-04T10:30:48;25.40;81.80
7212;DHT22;3647;48.792;9.802;2023-06-04T10:33:17;24.90;79.50
7212;DHT22;3647;48.792;9.802;2023-06-04T10:35:45;24.10;79.30
7212;DHT22;3647;48.792;9.802;2023-06-04T10:38:13;24.60;81.30
7212;DHT22;3647;48.792;9.802;2023-06-04T10:40:42;24.60;80.70
7212;DHT22;3647;48.792;9.802;2023-06-04T10:43:10;24.30;79.00
7212;DHT22;3647;48.792;9.802;2023-06-04T10:45:37;24.60;79.70
7212;DHT22;3647;48.792;9.802;2023-06-04T10:48:06;24.80;79.80
7212;DHT22;3647;48.792;9.802;2023-06-04T10:50:35;24.20;78.90
7212;DHT22;3647;48.792;9.802;2023-06-04T10:53:02;24.20;81.10
7212;DHT22;3647;48.792;9.802;2023-06-04T10:55:30;24.40;80.60
7212;DHT22;3647;48.792;9.802;2023-06-04T10:57:57;24.40;79.60
7212;DHT22;3647;48.792;9.802;2023-06-04T11:00:34;24.10;79.40
7212;DHT22;3647;48.792;9.802;2023-06-04T11:03:01;24.00;78.70
7212;DHT22;3647;48.792;9.802;2023-06-04T11:05:35;24.40;78.30
7212;DHT22;3647;48.792;9.802;2023-06-04T11:08:03;24.60;77.20
7212;DHT22;3647;48.792;9.802;2023-06-04T11:10:35;23.90;76.50
7212;DHT22;3647;48.792;9.802;2023-06-04T11:13:02;24.20;77.90
7212;DHT22;3647;48.792;9.802;2023-06-04T11:15:38;24.60;78.10
7212;DHT22;3647;48.792;9.802;2023-06-04T11:18:05;24.50;77.50
7212;DHT22;3647;48.792;9.802;2023-06-04T11:20:32;24.90;77.90
7212;DHT22;3647;48.792;9.802;2023-06-04T11:23:00;23.90;76.60
7212;DHT22;3647;48.792;9.802;2023-06-04T11:25:29;24.20;77.70
7212;DHT22;3647;48.792;9.802;2023-06-04T11:27:58;24.40;77.50
7212;DHT22;3647;48.792;9.802;2023-06-04T11:30:27;24.70;75.90
7212;DHT22;3647;48.792;9.802;2023-06-04T11:33:01;24.30;77.30
7212;DHT22;3647;48.792;9.802;2023-06-04T11:35:28;24.40;77.00
7212;DHT22;3647;48.792;9.802;2023-06-04T11:37:56;25.00;76.50
7212;DHT22;3647;48.792;9.802;2023-06-04T11:40:25;25.10;77.40
7212;DHT22;3647;48.792;9.802;2023-06-04T11:42:53;25.40;76.80
7212;DHT22;3647;48.792;9.802;2023-06-04T11:45:21;25.70;74.10
7212;DHT22;3647;48.792;9.802;2023-06-04T11:47:50;25.90;73.80
7212;DHT22;3647;48.792;9.802;2023-06-04T11:50:17;26.00;73.80
7212;DHT22;3647;48.792;9.802;2023-06-04T11:52:45;26.20;72.10
7212;DHT22;3647;48.792;9.802;2023-06-04T11:55:12;26.10;70.10
7212;DHT22;3647;48.792;9.802;2023-06-04T11:57:41;25.40;70.80
7212;DHT22;3647;48.792;9.802;2023-06-04T12:00:09;25.10;71.50
7212;DHT22;3647;48.792;9.802;2023-06-04T12:02:36;24.90;71.00
7212;DHT22;3647;48.792;9.802;2023-06-04T12:05:12;24.60;72.10
7212;DHT22;3647;48.792;9.802;2023-06-04T12:07:39;24.90;72.90
7212;DHT22;3647;48.792;9.802;2023-06-04T12:10:07;25.20;72.60
7212;DHT22;3647;48.792;9.802;2023-06-04T12:12:34;25.50;72.50
7212;DHT22;3647;48.792;9.802;2023-06-04T12:15:03;25.90;70.50
7212;DHT22;3647;48.792;9.802;2023-06-04T12:17:31;25.70;69.80
7212;DHT22;3647;48.792;9.802;2023-06-04T12:19:58;25.80;69.10
7212;DHT22;3647;48.792;9.802;2023-06-04T12:22:25;25.70;69.20
7212;DHT22;3647;48.792;9.802;2023-06-04T12:24:54;26.10;69.00
7212;DHT22;3647;48.792;9.802;2023-06-04T12:27:21;26.10;67.20
7212;DHT22;3647;48.792;9.802;2023-06-04T12:29:59;25.60;67.20
7212;DHT22;3647;48.792;9.802;2023-06-04T12:32:28;25.20;69.20
7212;DHT22;3647;48.792;9.802;2023-06-04T12:34:55;24.80;67.80
7212;DHT22;3647;48.792;9.802;2023-06-04T12:37:23;24.60;66.70
7212;DHT22;3647;48.792;9.802;2023-06-04T12:39:51;24.40;67.70
7212;DHT22;3647;48.792;9.802;2023-06-04T12:42:19;25.00;68.90
7212;DHT22;3647;48.792;9.802;2023-06-04T12:44:46;25.60;68.80
7212;DHT22;3647;48.792;9.802;2023-06-04T12:47:13;26.00;68.30
7212;DHT22;3647;48.792;9.802;2023-06-04T12:49:41;26.10;67.40
7212;DHT22;3647;48.792;9.802;2023-06-04T12:52:08;26.00;64.80
7212;DHT22;3647;48.792;9.802;2023-06-04T12:54:35;25.70;65.10
7212;DHT22;3647;48.792;9.802;2023-06-04T12:57:02;25.20;64.90
7212;DHT22;3647;48.792;9.802;2023-06-04T12:59:28;25.30;65.60
7212;DHT22;3647;48.792;9.802;2023-06-04T13:01:55;25.30;65.60
7212;DHT22;3647;48.792;9.802;2023-06-04T13:04:22;25.30;65.20
7212;DHT22;3647;48.792;9.802;2023-06-04T13:06:51;25.40;64.50
7212;DHT22;3647;48.792;9.802;2023-06-04T13:09:21;25.20;64.40
7212;DHT22;3647;48.792;9.802;2023-06-04T13:11:48;25.10;63.70
7212;DHT22;3647;48.792;9.802;2023-06-04T13:14:16;25.50;64.90
7212;DHT22;3647;48.792;9.802;2023-06-04T13:16:43;25.40;63.90
7212;DHT22;3647;48.792;9.802;2023-06-04T13:19:11;25.70;65.50
7212;DHT22;3647;48.792;9.802;2023-06-04T13:21:38;25.70;63.40
7212;DHT22;3647;48.792;9.802;2023-06-04T13:24:06;25.90;64.10
7212;DHT22;3647;48.792;9.802;2023-06-04T13:26:34;25.90;64.60
7212;DHT22;3647;48.792;9.802;2023-06-04T13:29:01;26.00;63.70
7212;DHT22;3647;48.792;9.802;2023-06-04T13:31:28;26.20;63.90
7212;DHT22;3647;48.792;9.802;2023-06-04T13:33:55;26.50;64.70
7212;DHT22;3647;48.792;9.802;2023-06-04T13:36:21;26.80;64.40
7212;DHT22;3647;48.792;9.802;2023-06-04T13:38:48;26.50;60.20
7212;DHT22;3647;48.792;9.802;2023-06-04T13:41:19;26.60;62.20
7212;DHT22;3647;48.792;9.802;2023-06-04T13:43:46;26.40;61.10
7212;DHT22;3647;48.792;9.802;2023-06-04T13:46:13;26.00;60.80
7212;DHT22;3647;48.792;9.802;2023-06-04T13:48:40;25.40;62.20
7212;DHT22;3647;48.792;9.802;2023-06-04T13:51:06;25.20;62.30
7212;DHT22;3647;48.792;9.802;2023-06-04T13:53:33;25.70;62.50
7212;DHT22;3647;48.792;9.802;2023-06-04T13:56:00;25.90;62.90
7212;DHT22;3647;48.792;9.802;2023-06-04T13:58:28;25.90;62.00
7212;DHT22;3647;48.792;9.802;2023-06-04T14:00:55;26.10;59.90
7212;DHT22;3647;48.792;9.802;2023-06-04T14:03:22;26.50;60.60
7212;DHT22;3647;48.792;9.802;2023-06-04T14:05:48;26.70;58.90
7212;DHT22;3647;48.792;9.802;2023-06-04T14:08:15;26.90;59.40
7212;DHT22;3647;48.792;9.802;2023-06-04T14:10:42;26.70;58.80
7212;DHT22;3647;48.792;9.802;2023-06-04T14:13:10;26.40;58.90
7212;DHT22;3647;48.792;9.802;2023-06-04T14:15:38;25.90;59.90
7212;DHT22;3647;48.792;9.802;2023-06-04T14:18:05;26.20;60.20
7212;DHT22;3647;48.792;9.802;2023-06-04T14:20:33;26.40;58.60
7212;DHT22;3647;48.792;9.802;2023-06-04T14:23:00;26.20;57.50
7212;DHT22;3647;48.792;9.802;2023-06-04T14:25:26;26.20;60.30
7212;DHT22;3647;48.792;9.802;2023-06-04T14:27:53;26.40;60.00
7212;DHT22;3647;48.792;9.802;2023-06-04T14:30:20;26.30;58.50
7212;DHT22;3647;48.792;9.802;2023-06-04T14:32:48;26.10;57.50
7212;DHT22;3647;48.792;9.802;2023-06-04T14:35:15;25.80;58.30
7212;DHT22;3647;48.792;9.802;2023-06-04T14:37:42;25.70;58.40
7212;DHT22;3647;48.792;9.802;2023-06-04T14:40:09;25.70;58.90
7212;DHT22;3647;48.792;9.802;2023-06-04T14:42:36;25.90;60.00
7212;DHT22;3647;48.792;9.802;2023-06-04T14:45:03;26.10;61.00
7212;DHT22;3647;48.792;9.802;2023-06-04T14:47:30;26.30;60.60
7212;DHT22;3647;48.792;9.802;2023-06-04T14:49:58;26.20;58.90
7212;DHT22;3647;48.792;9.802;2023-06-04T14:52:25;26.40;58.50
7212;DHT22;3647;48.792;9.802;2023-06-04T14:54:53;26.40;58.60
7212;DHT22;3647;48.792;9.802;2023-06-04T14:57:20;26.40;58.60
7212;DHT22;3647;48.792;9.802;2023-06-04T14:59:48;26.60;59.10
7212;DHT22;3647;48.792;9.802;2023-06-04T15:02:15;26.80;57.90
7212;DHT22;3647;48.792;9.802;2023-06-04T15:04:45;25.30;60.00
7212;DHT22;3647;48.792;9.802;2023-06-04T15:07:13;25.80;61.20
7212;DHT22;3647;48.792;9.802;2023-06-04T15:09:40;25.90;60.30
7212;DHT22;3647;48.792;9.802;2023-06-04T15:12:07;26.10;60.20
7212;DHT22;3647;48.792;9.802;2023-06-04T15:14:33;26.20;60.60
7212;DHT22;3647;48.792;9.802;2023-06-04T15:17:00;25.80;59.60
7212;DHT22;3647;48.792;9.802;2023-06-04T15:19:27;25.80;59.70
7212;DHT22;3647;48.792;9.802;2023-06-04T15:21:54;25.10;59.40
7212;DHT22;3647;48.792;9.802;2023-06-04T15:24:22;25.40;60.90
7212;DHT22;3647;48.792;9.802;2023-06-04T15:26:49;25.50;60.80
7212;DHT22;3647;48.792;9.802;2023-06-04T15:29:16;25.60;59.20
7212;DHT22;3647;48.792;9.802;2023-06-04T15:31:43;25.40;58.90
7212;DHT22;3647;48.792;9.802;2023-06-04T15:34:09;25.60;60.40
7212;DHT22;3647;48.792;9.802;2023-06-04T15:36:36;25.50;58.20
7212;DHT22;3647;48.792;9.802;2023-06-04T15:39:04;25.80;59.70
7212;DHT22;3647;48.792;9.802;2023-06-04T15:41:32;25.90;59.20
7212;DHT22;3647;48.792;9.802;2023-06-04T15:43:59;26.10;59.00
7212;DHT22;3647;48.792;9.802;2023-06-04T15:46:25;25.90;60.00
7212;DHT22;3647;48.792;9.802;2023-06-04T15:48:52;25.50;61.50
7212;DHT22;3647;48.792;9.802;2023-06-04T15:51:19;25.60;61.80
7212;DHT22;3647;48.792;9.802;2023-06-04T15:53:46;25.60;61.20
7212;DHT22;3647;48.792;9.802;2023-06-04T15:56:12;25.90;61.30
7212;DHT22;3647;48.792;9.802;2023-06-04T15:58:43;25.90;60.20
7212;DHT22;3647;48.792;9.802;2023-06-04T16:01:10;25.50;60.00
7212;DHT22;3647;48.792;9.802;2023-06-04T16:03:37;25.10;62.10
7212;DHT22;3647;48.792;9.802;2023-06-04T16:06:04;25.10;61.40